Forside
METAR-TAF:

METAR-TAF

Lufthavne :

Johnson County Executive Airport

Olathe, Kansas, USA

Breddekreds: 38-51-00N, længdekreds: 094-44-21W, højde: 334 m

Aktuelle vejr

Denne rapport blev lavet for 25 minutter siden, kl. 23:53 UTC
Vind 4 kt fra sydøst
Temperatur -1°C
Fugtighed 54%
Tryk 1028 hPa
Sigt: 16.1 km
skyfri

METAR: KOJC 142353Z 13004KT 10SM CLR M01/M09 A3035 RMK AO2 SLP291 T10061089 10028 21006 56014

Tid: 18:18 (00:18 UTC)


TAF: fraværende

Vejrobservationer og prognoser fra mere end 4000 lufthavne (METAR og TAF).

De gule og røde prikker repræsenterer de meteorologiske stationer.

Flyt musen over at se navnet på stationen.

Så klik over at se vejr observationer og prognoser.

At skifte det kort: Klik på de grønne knapper med et sort kors for at zoome ind; på den grønne knap med en bindestreg for at zoome ud; eller på de grønne pile for tilstødende kort.


METAR-TAF: